createdAt,value
2022-08-22T00:02:33.434Z,20.41
2022-08-22T00:07:17.852Z,20.52
2022-08-22T00:11:35.297Z,20.46
2022-08-22T00:16:08.917Z,20.41
2022-08-22T00:20:28.284Z,20.41
2022-08-22T00:25:24.523Z,20.38
2022-08-22T00:29:43.453Z,20.27
2022-08-22T00:34:15.912Z,20.29
2022-08-22T00:38:35.854Z,20.28
2022-08-22T00:43:10.058Z,20.22
2022-08-22T00:47:49.393Z,20.17
2022-08-22T00:52:22.397Z,20.08
2022-08-22T00:56:55.178Z,20.07
2022-08-22T01:01:11.750Z,20.00
2022-08-22T01:05:40.282Z,19.98
2022-08-22T01:09:54.759Z,19.91
2022-08-22T01:14:15.711Z,19.90
2022-08-22T01:19:01.104Z,19.91
2022-08-22T01:23:47.183Z,19.88
2022-08-22T01:28:27.342Z,19.93
2022-08-22T01:33:12.975Z,19.89
2022-08-22T01:37:52.508Z,19.89
2022-08-22T01:42:41.932Z,19.90
2022-08-22T01:47:06.925Z,19.90
2022-08-22T01:51:32.522Z,19.87
2022-08-22T01:56:12.954Z,19.88
2022-08-22T02:00:35.399Z,19.85
2022-08-22T02:05:06.233Z,19.83
2022-08-22T02:09:38.691Z,19.80
2022-08-22T02:13:56.986Z,19.80
2022-08-22T02:18:12.314Z,19.79
2022-08-22T02:23:08.731Z,19.78
2022-08-22T02:27:43.970Z,19.73
2022-08-22T02:32:02.516Z,19.74
2022-08-22T02:36:33.990Z,19.73
2022-08-22T02:41:14.392Z,19.75
2022-08-22T02:45:46.217Z,19.69
2022-08-22T02:50:15.750Z,19.67
2022-08-22T02:54:41.882Z,19.64
2022-08-22T02:59:00.059Z,19.62
2022-08-22T03:03:20.912Z,19.60
2022-08-22T03:07:50.993Z,19.56
2022-08-22T03:12:20.148Z,19.57
2022-08-22T03:16:54.979Z,19.55
2022-08-22T03:21:19.050Z,19.48
2022-08-22T03:25:30.546Z,19.49
2022-08-22T03:29:49.975Z,19.45
2022-08-22T03:34:27.061Z,19.40
2022-08-22T03:38:48.834Z,19.37
2022-08-22T03:43:22.142Z,19.34
2022-08-22T03:47:34.153Z,19.35
2022-08-22T03:52:04.403Z,19.31
2022-08-22T03:56:21.984Z,19.33
2022-08-22T04:01:07.947Z,19.27
2022-08-22T04:05:55.824Z,19.29
2022-08-22T04:10:42.438Z,19.23
2022-08-22T04:15:15.825Z,19.27
2022-08-22T04:19:42.622Z,19.26
2022-08-22T04:24:14.370Z,19.24
2022-08-22T04:28:35.152Z,19.32
2022-08-22T04:33:08.614Z,19.36
2022-08-22T04:37:43.708Z,19.34
2022-08-22T04:42:29.153Z,19.38
2022-08-22T04:47:29.936Z,19.39
2022-08-22T04:51:57.360Z,19.39
2022-08-22T04:56:30.147Z,19.36
2022-08-22T05:01:08.673Z,19.37
2022-08-22T05:05:37.819Z,19.34
2022-08-22T05:09:56.462Z,19.28
2022-08-22T05:14:17.869Z,19.28
2022-08-22T05:18:35.402Z,19.24
2022-08-22T05:22:52.957Z,19.27
2022-08-22T05:27:13.559Z,19.26
2022-08-22T05:31:30.243Z,19.26
2022-08-22T05:35:58.259Z,19.26
2022-08-22T05:40:19.689Z,19.33
2022-08-22T05:44:34.325Z,19.38
2022-08-22T05:48:57.354Z,19.45
2022-08-22T05:53:15.103Z,19.51
2022-08-22T05:57:30.655Z,19.59
2022-08-22T06:02:06.038Z,19.61
2022-08-22T06:06:19.825Z,19.65
2022-08-22T06:10:39.834Z,19.76
2022-08-22T06:15:12.156Z,19.84
2022-08-22T06:19:24.446Z,19.91
2022-08-22T06:23:48.168Z,20.10
2022-08-22T06:28:06.442Z,20.19
2022-08-22T06:32:44.554Z,20.40
2022-08-22T06:37:03.602Z,20.44
2022-08-22T06:41:15.336Z,20.66
2022-08-22T06:45:32.780Z,20.71
2022-08-22T06:49:45.882Z,20.85
2022-08-22T06:54:03.578Z,20.96
2022-08-22T06:58:19.694Z,21.04
2022-08-22T07:02:38.653Z,21.00
2022-08-22T07:06:51.464Z,21.10
2022-08-22T07:11:32.596Z,21.44
2022-08-22T07:15:53.632Z,21.60
2022-08-22T07:20:25.523Z,21.80
2022-08-22T07:24:44.580Z,22.05
2022-08-22T07:29:02.037Z,22.23
2022-08-22T07:33:41.224Z,22.32
2022-08-22T07:38:17.776Z,22.59
2022-08-22T07:42:56.927Z,22.74
2022-08-22T07:47:18.048Z,23.01
2022-08-22T07:51:46.775Z,23.31
2022-08-22T07:56:01.079Z,23.94
2022-08-22T08:00:16.937Z,24.74
2022-08-22T08:04:36.868Z,25.51
2022-08-22T08:08:52.350Z,25.78
2022-08-22T08:13:10.766Z,26.17
2022-08-22T08:17:31.397Z,27.89
2022-08-22T08:21:50.936Z,29.70
2022-08-22T08:26:10.082Z,30.02
2022-08-22T08:30:40.328Z,30.30
2022-08-22T08:34:52.471Z,30.58
2022-08-22T08:39:14.095Z,30.48
2022-08-22T08:43:40.623Z,30.43
2022-08-22T08:47:58.197Z,30.70
2022-08-22T08:52:31.918Z,31.14
2022-08-22T08:57:12.943Z,30.92
2022-08-22T09:01:54.340Z,30.35
2022-08-22T09:06:24.900Z,30.15
2022-08-22T09:11:10.166Z,30.50
2022-08-22T09:16:11.146Z,30.92
2022-08-22T09:21:11.315Z,32.17
2022-08-22T09:25:56.272Z,32.94
2022-08-22T09:30:13.245Z,33.76
2022-08-22T09:34:34.713Z,34.55
2022-08-22T09:38:56.672Z,35.08
2022-08-22T09:43:21.243Z,34.87
2022-08-22T09:47:59.003Z,34.65
2022-08-22T09:52:46.981Z,34.94
2022-08-22T09:57:04.152Z,34.68
2022-08-22T10:02:06.149Z,34.50
2022-08-22T10:06:37.096Z,34.43
2022-08-22T10:10:57.903Z,34.20
2022-08-22T10:15:20.867Z,34.58
2022-08-22T10:19:47.055Z,35.25
2022-08-22T10:24:25.726Z,35.74
2022-08-22T10:29:06.787Z,36.05
2022-08-22T10:33:32.397Z,35.67
2022-08-22T10:37:53.661Z,35.56
2022-08-22T10:42:27.876Z,35.33
2022-08-22T10:46:54.951Z,35.47
2022-08-22T10:51:15.102Z,35.44
2022-08-22T10:55:28.683Z,34.93
2022-08-22T10:59:58.904Z,34.70
2022-08-22T11:04:47.611Z,34.19
2022-08-22T11:09:14.561Z,33.63
2022-08-22T11:13:45.418Z,33.58
2022-08-22T11:18:00.367Z,33.80
2022-08-22T11:22:25.483Z,33.85
2022-08-22T11:26:47.478Z,34.01
2022-08-22T11:31:10.592Z,34.17
2022-08-22T11:35:30.161Z,34.44
2022-08-22T11:40:04.482Z,34.75
2022-08-22T11:44:27.560Z,34.81
2022-08-22T11:49:04.573Z,34.43
2022-08-22T11:54:07.565Z,34.15
2022-08-22T11:58:48.443Z,34.30
2022-08-22T12:03:26.683Z,33.81
2022-08-22T12:07:49.046Z,33.44
2022-08-22T12:12:37.198Z,33.27
2022-08-22T12:17:55.765Z,33.11
2022-08-22T12:22:34.580Z,32.82
2022-08-22T12:27:28.678Z,32.65
2022-08-22T12:31:56.166Z,32.63
2022-08-22T12:36:18.718Z,32.73
2022-08-22T12:40:36.447Z,32.87
2022-08-22T12:45:25.863Z,32.82
2022-08-22T12:50:13.138Z,32.85
2022-08-22T12:54:56.704Z,32.85
2022-08-22T12:59:24.120Z,32.82
2022-08-22T13:03:43.617Z,32.83
2022-08-22T13:08:04.133Z,32.62
2022-08-22T13:12:23.362Z,32.36
2022-08-22T13:16:49.107Z,32.24
2022-08-22T13:21:09.476Z,32.06
2022-08-22T13:25:27.135Z,32.04
2022-08-22T13:29:47.227Z,31.91
2022-08-22T13:34:03.803Z,31.93
2022-08-22T13:38:28.085Z,31.96
2022-08-22T13:42:48.026Z,31.90
2022-08-22T13:47:14.377Z,31.73
2022-08-22T13:51:40.136Z,31.49
2022-08-22T13:56:01.126Z,31.51
2022-08-22T14:00:22.398Z,31.60
2022-08-22T14:04:43.879Z,31.68
2022-08-22T14:09:02.491Z,31.75
2022-08-22T14:13:49.479Z,31.62
2022-08-22T14:18:15.419Z,31.47
2022-08-22T14:22:34.914Z,31.18
2022-08-22T14:26:58.372Z,31.02
2022-08-22T14:31:13.855Z,30.80
2022-08-22T14:35:37.991Z,30.65
2022-08-22T14:40:10.599Z,30.53
2022-08-22T14:44:30.973Z,30.43
2022-08-22T14:49:11.193Z,30.41
2022-08-22T14:53:33.625Z,30.31
2022-08-22T14:57:56.571Z,30.20
2022-08-22T15:02:26.557Z,30.19
2022-08-22T15:06:47.697Z,30.25
2022-08-22T15:11:14.070Z,30.39
2022-08-22T15:15:54.417Z,30.42
2022-08-22T15:20:28.524Z,30.30
2022-08-22T15:24:49.437Z,30.23
2022-08-22T15:29:22.240Z,30.23
2022-08-22T15:33:43.226Z,30.12
2022-08-22T15:37:59.424Z,29.88
2022-08-22T15:42:26.067Z,29.62
2022-08-22T15:46:44.589Z,29.55
2022-08-22T15:51:10.411Z,29.53
2022-08-22T15:55:26.678Z,29.40
2022-08-22T15:59:54.459Z,29.34
2022-08-22T16:04:12.680Z,29.28
2022-08-22T16:08:48.259Z,29.27
2022-08-22T16:13:27.281Z,29.17
2022-08-22T16:17:43.849Z,29.12
2022-08-22T16:21:55.375Z,29.10
2022-08-22T16:26:08.956Z,29.09
2022-08-22T16:30:32.726Z,28.99
2022-08-22T16:34:45.837Z,28.99
2022-08-22T16:38:57.625Z,28.92
2022-08-22T16:43:18.174Z,28.85
2022-08-22T16:47:32.720Z,28.70
2022-08-22T16:52:24.679Z,28.51
2022-08-22T16:56:56.393Z,28.37
2022-08-22T17:01:53.095Z,28.35
2022-08-22T17:06:37.067Z,28.24
2022-08-22T17:11:15.424Z,28.12
2022-08-22T17:15:45.409Z,28.03
2022-08-22T17:20:13.664Z,27.98
2022-08-22T17:24:35.150Z,27.94
2022-08-22T17:29:05.081Z,27.82
2022-08-22T17:33:40.536Z,27.71
2022-08-22T17:38:25.526Z,27.59
2022-08-22T17:42:49.449Z,27.47
2022-08-22T17:47:09.855Z,27.42
2022-08-22T17:51:28.589Z,27.35
2022-08-22T17:56:06.957Z,27.27
2022-08-22T18:00:39.284Z,27.17
2022-08-22T18:05:07.670Z,27.00
2022-08-22T18:09:38.390Z,26.92
2022-08-22T18:14:28.246Z,26.76
2022-08-22T18:19:04.630Z,26.61
2022-08-22T18:23:35.398Z,26.41
2022-08-22T18:27:59.225Z,26.18
2022-08-22T18:32:19.582Z,26.01
2022-08-22T18:36:45.201Z,25.85
2022-08-22T18:41:09.041Z,25.69
2022-08-22T18:45:45.587Z,25.58
2022-08-22T18:49:57.918Z,25.40
2022-08-22T18:54:11.077Z,25.28
2022-08-22T18:58:41.321Z,25.17
2022-08-22T19:03:20.903Z,24.99
2022-08-22T19:07:59.972Z,24.82
2022-08-22T19:12:23.700Z,24.64
2022-08-22T19:16:50.274Z,24.54
2022-08-22T19:21:53.100Z,24.46
2022-08-22T19:26:24.910Z,24.34
2022-08-22T19:30:41.559Z,24.27
2022-08-22T19:35:18.150Z,24.19
2022-08-22T19:39:41.988Z,24.21
2022-08-22T19:43:54.162Z,24.14
2022-08-22T19:48:13.724Z,24.11
2022-08-22T19:52:47.453Z,24.09
2022-08-22T19:57:15.709Z,23.99
2022-08-22T20:01:36.491Z,23.94
2022-08-22T20:06:43.071Z,23.86
2022-08-22T20:11:37.659Z,23.78
2022-08-22T20:16:16.319Z,23.64
2022-08-22T20:20:36.028Z,23.57
2022-08-22T20:24:56.087Z,23.53
2022-08-22T20:29:08.136Z,23.44
2022-08-22T20:33:28.384Z,23.39
2022-08-22T20:38:05.848Z,23.39
2022-08-22T20:42:17.335Z,23.37
2022-08-22T20:46:53.490Z,23.34
2022-08-22T20:51:08.858Z,23.32
2022-08-22T20:55:27.289Z,23.38
2022-08-22T20:59:52.775Z,23.34
2022-08-22T21:04:04.941Z,23.24
2022-08-22T21:08:26.464Z,23.31
2022-08-22T21:12:38.190Z,23.34
2022-08-22T21:16:50.445Z,23.33
2022-08-22T21:21:17.458Z,23.48
2022-08-22T21:25:30.159Z,23.48
2022-08-22T21:29:46.423Z,23.49
2022-08-22T21:33:59.794Z,23.55
2022-08-22T21:38:17.154Z,23.56
2022-08-22T21:42:40.648Z,23.60
2022-08-22T21:46:53.144Z,23.55
2022-08-22T21:51:21.718Z,23.63
2022-08-22T21:55:43.049Z,23.57
2022-08-22T21:59:58.902Z,23.66
2022-08-22T22:04:11.529Z,23.73
2022-08-22T22:08:23.445Z,23.76
2022-08-22T22:12:43.066Z,23.73
2022-08-22T22:16:54.707Z,23.63
2022-08-22T22:21:06.710Z,23.56
2022-08-22T22:25:40.346Z,23.46
2022-08-22T22:29:51.814Z,23.32
2022-08-22T22:34:03.422Z,23.24
2022-08-22T22:38:16.354Z,23.23
2022-08-22T22:42:30.050Z,23.18
2022-08-22T22:46:41.955Z,23.17
2022-08-22T22:50:54.121Z,23.18
2022-08-22T22:55:07.599Z,23.11
2022-08-22T22:59:19.206Z,23.07
2022-08-22T23:03:36.459Z,22.99
2022-08-22T23:07:48.157Z,22.87
2022-08-22T23:12:28.345Z,22.83
2022-08-22T23:16:40.623Z,22.68
2022-08-22T23:20:52.287Z,22.61
2022-08-22T23:25:05.009Z,22.46
2022-08-22T23:29:16.742Z,22.39
2022-08-22T23:33:28.377Z,22.30
2022-08-22T23:37:40.042Z,22.30
2022-08-22T23:41:51.945Z,22.15
2022-08-22T23:46:03.750Z,22.11
2022-08-22T23:50:15.410Z,22.03
2022-08-22T23:54:27.303Z,22.00
2022-08-22T23:58:38.984Z,21.92
